sensor_id;sensor_type;location;lat;lon;timestamp;P1;durP1;ratioP1;P2;durP2;ratioP2
1533;SDS011;760;48.822;9.304;2023-03-05T05:04:46;21.52;;;10.30;;
1533;SDS011;760;48.822;9.304;2023-03-05T05:07:12;12.53;;;7.93;;
1533;SDS011;760;48.822;9.304;2023-03-05T05:09:37;21.80;;;10.73;;
1533;SDS011;760;48.822;9.304;2023-03-05T05:12:05;15.60;;;10.27;;
1533;SDS011;760;48.822;9.304;2023-03-05T05:14:32;13.98;;;9.50;;
1533;SDS011;760;48.822;9.304;2023-03-05T05:16:58;18.55;;;9.02;;
1533;SDS011;760;48.822;9.304;2023-03-05T05:19:24;18.85;;;10.30;;
1533;SDS011;760;48.822;9.304;2023-03-05T05:21:50;13.80;;;8.00;;
1533;SDS011;760;48.822;9.304;2023-03-05T05:24:15;16.60;;;10.60;;
1533;SDS011;760;48.822;9.304;2023-03-05T05:26:41;17.40;;;8.67;;
1533;SDS011;760;48.822;9.304;2023-03-05T05:29:06;15.77;;;8.70;;
1533;SDS011;760;48.822;9.304;2023-03-05T05:31:32;14.60;;;9.27;;
1533;SDS011;760;48.822;9.304;2023-03-05T05:33:57;19.13;;;9.93;;
1533;SDS011;760;48.822;9.304;2023-03-05T05:36:23;15.10;;;9.47;;
1533;SDS011;760;48.822;9.304;2023-03-05T05:38:49;13.43;;;8.73;;
1533;SDS011;760;48.822;9.304;2023-03-05T05:41:15;12.37;;;7.77;;
1533;SDS011;760;48.822;9.304;2023-03-05T05:43:42;18.77;;;9.25;;
1533;SDS011;760;48.822;9.304;2023-03-05T05:46:10;18.10;;;11.50;;
1533;SDS011;760;48.822;9.304;2023-03-05T05:48:38;18.95;;;8.13;;
1533;SDS011;760;48.822;9.304;2023-03-05T05:51:22;10.93;;;7.20;;
1533;SDS011;760;48.822;9.304;2023-03-05T05:53:48;19.08;;;10.93;;
1533;SDS011;760;48.822;9.304;2023-03-05T05:56:15;14.60;;;8.85;;
1533;SDS011;760;48.822;9.304;2023-03-05T05:58:41;15.73;;;8.77;;
1533;SDS011;760;48.822;9.304;2023-03-05T06:03:46;13.15;;;10.00;;
1533;SDS011;760;48.822;9.304;2023-03-05T06:06:12;20.30;;;9.47;;
1533;SDS011;760;48.822;9.304;2023-03-05T06:08:40;13.18;;;8.35;;
1533;SDS011;760;48.822;9.304;2023-03-05T06:11:06;14.38;;;9.77;;
1533;SDS011;760;48.822;9.304;2023-03-05T06:13:32;13.52;;;8.98;;
1533;SDS011;760;48.822;9.304;2023-03-05T06:15:59;19.08;;;10.23;;
1533;SDS011;760;48.822;9.304;2023-03-05T06:18:27;14.88;;;8.75;;
1533;SDS011;760;48.822;9.304;2023-03-05T06:20:53;16.40;;;9.82;;
1533;SDS011;760;48.822;9.304;2023-03-05T06:23:20;18.58;;;9.48;;
1533;SDS011;760;48.822;9.304;2023-03-05T06:25:46;18.60;;;11.17;;
1533;SDS011;760;48.822;9.304;2023-03-05T06:28:11;15.47;;;9.17;;
1533;SDS011;760;48.822;9.304;2023-03-05T06:30:37;17.40;;;8.47;;
1533;SDS011;760;48.822;9.304;2023-03-05T06:33:02;15.27;;;7.80;;
1533;SDS011;760;48.822;9.304;2023-03-05T06:35:28;15.97;;;8.90;;
1533;SDS011;760;48.822;9.304;2023-03-05T06:37:54;8.70;;;7.23;;
1533;SDS011;760;48.822;9.304;2023-03-05T06:40:19;10.00;;;6.10;;
1533;SDS011;760;48.822;9.304;2023-03-05T06:42:45;9.23;;;5.20;;
1533;SDS011;760;48.822;9.304;2023-03-05T06:45:10;7.23;;;5.53;;
1533;SDS011;760;48.822;9.304;2023-03-05T06:47:36;7.60;;;5.87;;
1533;SDS011;760;48.822;9.304;2023-03-05T06:50:02;8.27;;;4.23;;
1533;SDS011;760;48.822;9.304;2023-03-05T06:52:27;10.57;;;6.87;;
1533;SDS011;760;48.822;9.304;2023-03-05T06:54:53;6.97;;;3.80;;
1533;SDS011;760;48.822;9.304;2023-03-05T06:57:20;9.60;;;5.88;;
1533;SDS011;760;48.822;9.304;2023-03-05T06:59:46;8.30;;;4.93;;
1533;SDS011;760;48.822;9.304;2023-03-05T07:02:11;12.13;;;6.17;;
1533;SDS011;760;48.822;9.304;2023-03-05T07:04:38;10.82;;;5.95;;
1533;SDS011;760;48.822;9.304;2023-03-05T07:07:04;7.03;;;4.90;;
1533;SDS011;760;48.822;9.304;2023-03-05T07:09:30;9.18;;;4.88;;
1533;SDS011;760;48.822;9.304;2023-03-05T07:11:55;9.00;;;4.17;;
1533;SDS011;760;48.822;9.304;2023-03-05T07:14:21;10.30;;;4.83;;
1533;SDS011;760;48.822;9.304;2023-03-05T07:16:47;10.03;;;5.53;;
1533;SDS011;760;48.822;9.304;2023-03-05T07:19:12;9.80;;;4.50;;
1533;SDS011;760;48.822;9.304;2023-03-05T07:21:38;14.43;;;5.73;;
1533;SDS011;760;48.822;9.304;2023-03-05T07:24:04;7.37;;;5.97;;
1533;SDS011;760;48.822;9.304;2023-03-05T07:26:30;7.77;;;4.53;;
1533;SDS011;760;48.822;9.304;2023-03-05T07:28:57;11.93;;;6.35;;
1533;SDS011;760;48.822;9.304;2023-03-05T07:31:23;9.80;;;5.40;;
1533;SDS011;760;48.822;9.304;2023-03-05T07:33:54;9.77;;;4.88;;
1533;SDS011;760;48.822;9.304;2023-03-05T07:36:20;8.17;;;6.33;;
1533;SDS011;760;48.822;9.304;2023-03-05T07:38:45;6.60;;;5.80;;
1533;SDS011;760;48.822;9.304;2023-03-05T07:41:12;12.20;;;7.63;;
1533;SDS011;760;48.822;9.304;2023-03-05T07:43:44;9.30;;;6.03;;
1533;SDS011;760;48.822;9.304;2023-03-05T07:46:13;12.35;;;4.75;;
1533;SDS011;760;48.822;9.304;2023-03-05T07:48:40;9.80;;;6.97;;
1533;SDS011;760;48.822;9.304;2023-03-05T07:51:06;7.70;;;6.90;;
1533;SDS011;760;48.822;9.304;2023-03-05T07:53:34;11.50;;;5.97;;
1533;SDS011;760;48.822;9.304;2023-03-05T07:56:00;8.40;;;4.30;;
1533;SDS011;760;48.822;9.304;2023-03-05T07:58:26;7.03;;;6.03;;
1533;SDS011;760;48.822;9.304;2023-03-05T08:00:51;7.10;;;5.67;;
1533;SDS011;760;48.822;9.304;2023-03-05T08:03:17;8.37;;;4.77;;
1533;SDS011;760;48.822;9.304;2023-03-05T08:05:43;7.53;;;5.80;;
1533;SDS011;760;48.822;9.304;2023-03-05T08:08:08;9.97;;;6.77;;
1533;SDS011;760;48.822;9.304;2023-03-05T08:10:34;14.30;;;6.73;;
1533;SDS011;760;48.822;9.304;2023-03-05T08:13:01;11.50;;;5.45;;
1533;SDS011;760;48.822;9.304;2023-03-05T08:15:27;13.75;;;4.93;;
1533;SDS011;760;48.822;9.304;2023-03-05T08:17:56;11.77;;;6.88;;
1533;SDS011;760;48.822;9.304;2023-03-05T08:20:22;12.90;;;4.90;;
1533;SDS011;760;48.822;9.304;2023-03-05T08:22:48;6.57;;;5.53;;
1533;SDS011;760;48.822;9.304;2023-03-05T08:25:14;11.00;;;7.13;;
1533;SDS011;760;48.822;9.304;2023-03-05T08:27:41;11.80;;;5.20;;
1533;SDS011;760;48.822;9.304;2023-03-05T08:30:10;11.55;;;6.38;;
1533;SDS011;760;48.822;9.304;2023-03-05T08:32:38;6.18;;;5.22;;
1533;SDS011;760;48.822;9.304;2023-03-05T08:35:04;7.32;;;4.97;;
1533;SDS011;760;48.822;9.304;2023-03-05T08:37:30;13.82;;;7.00;;
1533;SDS011;760;48.822;9.304;2023-03-05T08:39:56;13.90;;;6.40;;
1533;SDS011;760;48.822;9.304;2023-03-05T08:42:22;8.40;;;4.67;;
1533;SDS011;760;48.822;9.304;2023-03-05T08:44:48;8.70;;;6.07;;
1533;SDS011;760;48.822;9.304;2023-03-05T08:47:14;9.20;;;5.50;;
1533;SDS011;760;48.822;9.304;2023-03-05T08:49:40;9.57;;;5.43;;
1533;SDS011;760;48.822;9.304;2023-03-05T08:52:06;10.07;;;5.60;;
1533;SDS011;760;48.822;9.304;2023-03-05T08:54:32;6.57;;;4.80;;
1533;SDS011;760;48.822;9.304;2023-03-05T08:56:58;11.38;;;6.65;;
1533;SDS011;760;48.822;9.304;2023-03-05T08:59:23;13.73;;;5.10;;
1533;SDS011;760;48.822;9.304;2023-03-05T09:01:49;11.33;;;5.67;;
1533;SDS011;760;48.822;9.304;2023-03-05T09:04:15;14.60;;;7.10;;
1533;SDS011;760;48.822;9.304;2023-03-05T09:06:40;6.40;;;4.57;;
1533;SDS011;760;48.822;9.304;2023-03-05T09:09:06;11.63;;;6.03;;
1533;SDS011;760;48.822;9.304;2023-03-05T09:11:32;10.32;;;6.57;;
1533;SDS011;760;48.822;9.304;2023-03-05T09:14:00;10.35;;;6.13;;
1533;SDS011;760;48.822;9.304;2023-03-05T09:16:27;14.48;;;7.40;;
1533;SDS011;760;48.822;9.304;2023-03-05T09:18:52;12.13;;;6.90;;
1533;SDS011;760;48.822;9.304;2023-03-05T09:21:18;9.47;;;5.77;;
1533;SDS011;760;48.822;9.304;2023-03-05T09:23:44;7.77;;;5.40;;
1533;SDS011;760;48.822;9.304;2023-03-05T09:26:11;11.60;;;5.45;;
1533;SDS011;760;48.822;9.304;2023-03-05T09:28:39;12.23;;;6.25;;
1533;SDS011;760;48.822;9.304;2023-03-05T09:31:06;9.15;;;6.75;;
1533;SDS011;760;48.822;9.304;2023-03-05T09:33:33;10.75;;;5.20;;
1533;SDS011;760;48.822;9.304;2023-03-05T09:36:00;9.27;;;6.30;;
1533;SDS011;760;48.822;9.304;2023-03-05T09:38:27;12.10;;;5.35;;
1533;SDS011;760;48.822;9.304;2023-03-05T09:41:06;12.95;;;5.80;;
1533;SDS011;760;48.822;9.304;2023-03-05T09:43:52;7.70;;;6.22;;
1533;SDS011;760;48.822;9.304;2023-03-05T09:49:45;9.18;;;5.65;;
1533;SDS011;760;48.822;9.304;2023-03-05T09:52:31;9.50;;;5.88;;
1533;SDS011;760;48.822;9.304;2023-03-05T09:54:59;9.50;;;6.03;;
1533;SDS011;760;48.822;9.304;2023-03-05T09:57:35;14.98;;;6.22;;
1533;SDS011;760;48.822;9.304;2023-03-05T10:00:53;10.60;;;6.18;;
1533;SDS011;760;48.822;9.304;2023-03-05T10:03:13;13.45;;;6.32;;
1533;SDS011;760;48.822;9.304;2023-03-05T10:08:30;14.77;;;7.32;;
1533;SDS011;760;48.822;9.304;2023-03-05T10:11:06;12.98;;;6.32;;
1533;SDS011;760;48.822;9.304;2023-03-05T10:13:42;12.30;;;5.65;;
1533;SDS011;760;48.822;9.304;2023-03-05T10:22:29;11.25;;;6.97;;
1533;SDS011;760;48.822;9.304;2023-03-05T10:25:20;11.02;;;6.30;;
1533;SDS011;760;48.822;9.304;2023-03-05T10:28:09;8.23;;;5.63;;
1533;SDS011;760;48.822;9.304;2023-03-05T10:34:38;9.52;;;5.63;;
1533;SDS011;760;48.822;9.304;2023-03-05T10:42:30;8.45;;;5.72;;
1533;SDS011;760;48.822;9.304;2023-03-05T10:45:12;11.32;;;5.97;;
1533;SDS011;760;48.822;9.304;2023-03-05T10:48:01;10.52;;;5.22;;
1533;SDS011;760;48.822;9.304;2023-03-05T10:50:36;8.40;;;5.20;;
1533;SDS011;760;48.822;9.304;2023-03-05T10:55:41;15.75;;;6.85;;
1533;SDS011;760;48.822;9.304;2023-03-05T10:58:11;13.03;;;6.50;;
1533;SDS011;760;48.822;9.304;2023-03-05T11:00:38;9.45;;;5.78;;
1533;SDS011;760;48.822;9.304;2023-03-05T11:03:05;10.23;;;5.53;;
1533;SDS011;760;48.822;9.304;2023-03-05T11:13:33;12.82;;;7.25;;
1533;SDS011;760;48.822;9.304;2023-03-05T11:16:03;11.85;;;6.57;;
1533;SDS011;760;48.822;9.304;2023-03-05T11:18:30;8.90;;;6.18;;
1533;SDS011;760;48.822;9.304;2023-03-05T11:21:08;15.38;;;7.40;;
1533;SDS011;760;48.822;9.304;2023-03-05T11:23:35;14.43;;;6.78;;
1533;SDS011;760;48.822;9.304;2023-03-05T11:26:02;20.60;;;8.00;;
1533;SDS011;760;48.822;9.304;2023-03-05T11:34:05;13.13;;;7.37;;
1533;SDS011;760;48.822;9.304;2023-03-05T11:39:22;15.77;;;6.30;;
1533;SDS011;760;48.822;9.304;2023-03-05T11:47:08;11.30;;;7.30;;
1533;SDS011;760;48.822;9.304;2023-03-05T11:49:39;16.05;;;6.70;;
1533;SDS011;760;48.822;9.304;2023-03-05T11:52:13;10.60;;;7.25;;
1533;SDS011;760;48.822;9.304;2023-03-05T11:55:12;10.57;;;6.15;;
1533;SDS011;760;48.822;9.304;2023-03-05T12:00:29;12.93;;;8.10;;
1533;SDS011;760;48.822;9.304;2023-03-05T12:02:58;8.88;;;6.78;;
1533;SDS011;760;48.822;9.304;2023-03-05T12:05:27;9.77;;;6.85;;
1533;SDS011;760;48.822;9.304;2023-03-05T12:07:54;11.20;;;6.53;;
1533;SDS011;760;48.822;9.304;2023-03-05T12:10:24;16.23;;;6.63;;
1533;SDS011;760;48.822;9.304;2023-03-05T12:12:52;9.85;;;6.10;;
1533;SDS011;760;48.822;9.304;2023-03-05T12:23:13;10.25;;;5.30;;
1533;SDS011;760;48.822;9.304;2023-03-05T12:25:46;5.85;;;4.65;;
1533;SDS011;760;48.822;9.304;2023-03-05T12:31:03;6.90;;;6.07;;
1533;SDS011;760;48.822;9.304;2023-03-05T12:33:34;9.88;;;5.30;;
1533;SDS011;760;48.822;9.304;2023-03-05T12:38:48;7.72;;;5.53;;
1533;SDS011;760;48.822;9.304;2023-03-05T12:46:29;12.05;;;6.40;;
1533;SDS011;760;48.822;9.304;2023-03-05T12:48:59;12.07;;;6.78;;
1533;SDS011;760;48.822;9.304;2023-03-05T12:51:44;9.70;;;5.60;;
1533;SDS011;760;48.822;9.304;2023-03-05T12:56:57;8.90;;;5.82;;
1533;SDS011;760;48.822;9.304;2023-03-05T12:59:27;7.30;;;5.45;;
1533;SDS011;760;48.822;9.304;2023-03-05T13:02:00;9.65;;;6.10;;
1533;SDS011;760;48.822;9.304;2023-03-05T13:04:29;10.07;;;6.10;;
1533;SDS011;760;48.822;9.304;2023-03-05T13:07:03;9.65;;;5.97;;
1533;SDS011;760;48.822;9.304;2023-03-05T13:09:32;12.57;;;6.78;;
1533;SDS011;760;48.822;9.304;2023-03-05T13:12:02;8.30;;;5.35;;
1533;SDS011;760;48.822;9.304;2023-03-05T13:14:40;16.63;;;7.40;;
1533;SDS011;760;48.822;9.304;2023-03-05T13:19:59;8.35;;;6.20;;
1533;SDS011;760;48.822;9.304;2023-03-05T13:22:26;9.50;;;6.40;;
1533;SDS011;760;48.822;9.304;2023-03-05T13:27:37;13.68;;;7.40;;
1533;SDS011;760;48.822;9.304;2023-03-05T13:30:03;11.97;;;6.33;;
1533;SDS011;760;48.822;9.304;2023-03-05T13:32:30;14.60;;;6.97;;
1533;SDS011;760;48.822;9.304;2023-03-05T13:34:57;8.70;;;6.20;;
1533;SDS011;760;48.822;9.304;2023-03-05T13:37:24;13.07;;;7.68;;
1533;SDS011;760;48.822;9.304;2023-03-05T13:39:59;10.25;;;7.38;;
1533;SDS011;760;48.822;9.304;2023-03-05T13:42:31;12.63;;;6.75;;
1533;SDS011;760;48.822;9.304;2023-03-05T13:47:30;13.13;;;7.25;;
1533;SDS011;760;48.822;9.304;2023-03-05T13:49:58;10.05;;;6.18;;
1533;SDS011;760;48.822;9.304;2023-03-05T13:52:26;27.63;;;6.70;;
1533;SDS011;760;48.822;9.304;2023-03-05T13:54:57;9.05;;;5.65;;
1533;SDS011;760;48.822;9.304;2023-03-05T14:00:05;11.65;;;6.40;;
1533;SDS011;760;48.822;9.304;2023-03-05T14:02:48;6.47;;;4.80;;
1533;SDS011;760;48.822;9.304;2023-03-05T14:05:14;9.13;;;5.17;;
1533;SDS011;760;48.822;9.304;2023-03-05T14:07:40;13.03;;;7.00;;
1533;SDS011;760;48.822;9.304;2023-03-05T14:10:25;9.68;;;6.63;;
1533;SDS011;760;48.822;9.304;2023-03-05T14:12:52;7.72;;;5.38;;
1533;SDS011;760;48.822;9.304;2023-03-05T14:15:19;9.35;;;5.85;;
1533;SDS011;760;48.822;9.304;2023-03-05T14:20:37;10.82;;;6.40;;
1533;SDS011;760;48.822;9.304;2023-03-05T14:23:24;10.98;;;5.72;;
1533;SDS011;760;48.822;9.304;2023-03-05T14:29:13;5.78;;;4.38;;
1533;SDS011;760;48.822;9.304;2023-03-05T14:34:31;8.60;;;4.68;;
1533;SDS011;760;48.822;9.304;2023-03-05T14:37:23;9.70;;;5.15;;
1533;SDS011;760;48.822;9.304;2023-03-05T14:39:57;6.57;;;4.22;;
1533;SDS011;760;48.822;9.304;2023-03-05T14:42:30;5.13;;;3.83;;
1533;SDS011;760;48.822;9.304;2023-03-05T14:45:13;8.57;;;5.40;;
1533;SDS011;760;48.822;9.304;2023-03-05T14:47:41;10.10;;;5.10;;
1533;SDS011;760;48.822;9.304;2023-03-05T14:50:07;8.67;;;5.70;;
1533;SDS011;760;48.822;9.304;2023-03-05T14:52:38;6.25;;;4.70;;
1533;SDS011;760;48.822;9.304;2023-03-05T14:55:04;9.30;;;6.27;;
1533;SDS011;760;48.822;9.304;2023-03-05T14:57:31;7.70;;;6.07;;
1533;SDS011;760;48.822;9.304;2023-03-05T14:59:57;14.02;;;6.00;;
1533;SDS011;760;48.822;9.304;2023-03-05T15:02:23;12.80;;;6.23;;
1533;SDS011;760;48.822;9.304;2023-03-05T15:04:50;10.55;;;6.35;;
1533;SDS011;760;48.822;9.304;2023-03-05T15:07:17;7.87;;;5.00;;
1533;SDS011;760;48.822;9.304;2023-03-05T15:09:49;6.00;;;4.65;;
1533;SDS011;760;48.822;9.304;2023-03-05T15:12:15;8.00;;;5.60;;
1533;SDS011;760;48.822;9.304;2023-03-05T15:14:42;8.63;;;4.53;;
1533;SDS011;760;48.822;9.304;2023-03-05T15:17:10;9.80;;;5.47;;
1533;SDS011;760;48.822;9.304;2023-03-05T15:19:40;6.78;;;4.47;;
1533;SDS011;760;48.822;9.304;2023-03-05T15:22:08;9.70;;;6.47;;
1533;SDS011;760;48.822;9.304;2023-03-05T15:24:35;13.40;;;6.15;;
1533;SDS011;760;48.822;9.304;2023-03-05T15:27:01;8.17;;;4.47;;
1533;SDS011;760;48.822;9.304;2023-03-05T15:29:28;12.25;;;6.03;;
1533;SDS011;760;48.822;9.304;2023-03-05T15:31:54;8.25;;;6.55;;
1533;SDS011;760;48.822;9.304;2023-03-05T15:34:20;6.90;;;4.90;;
1533;SDS011;760;48.822;9.304;2023-03-05T15:36:45;9.23;;;6.40;;
1533;SDS011;760;48.822;9.304;2023-03-05T15:39:11;7.67;;;5.57;;
1533;SDS011;760;48.822;9.304;2023-03-05T15:41:36;14.60;;;6.70;;
1533;SDS011;760;48.822;9.304;2023-03-05T15:44:02;6.97;;;5.77;;
1533;SDS011;760;48.822;9.304;2023-03-05T15:46:27;8.20;;;5.10;;
1533;SDS011;760;48.822;9.304;2023-03-05T15:48:53;13.83;;;6.17;;
1533;SDS011;760;48.822;9.304;2023-03-05T15:51:19;6.93;;;5.90;;
1533;SDS011;760;48.822;9.304;2023-03-05T15:53:45;7.18;;;4.72;;
1533;SDS011;760;48.822;9.304;2023-03-05T15:56:14;9.40;;;5.65;;
1533;SDS011;760;48.822;9.304;2023-03-05T15:58:40;10.52;;;6.32;;
1533;SDS011;760;48.822;9.304;2023-03-05T16:01:07;7.40;;;5.25;;
1533;SDS011;760;48.822;9.304;2023-03-05T16:03:34;8.48;;;6.63;;
1533;SDS011;760;48.822;9.304;2023-03-05T16:06:00;9.00;;;7.20;;
1533;SDS011;760;48.822;9.304;2023-03-05T16:08:26;16.27;;;6.90;;
1533;SDS011;760;48.822;9.304;2023-03-05T16:10:52;9.23;;;6.00;;
1533;SDS011;760;48.822;9.304;2023-03-05T16:13:18;8.63;;;6.40;;
1533;SDS011;760;48.822;9.304;2023-03-05T16:15:44;9.63;;;7.33;;
1533;SDS011;760;48.822;9.304;2023-03-05T16:18:11;10.48;;;5.78;;
1533;SDS011;760;48.822;9.304;2023-03-05T16:20:39;8.43;;;5.90;;
1533;SDS011;760;48.822;9.304;2023-03-05T16:23:05;8.90;;;6.00;;
1533;SDS011;760;48.822;9.304;2023-03-05T16:25:31;9.52;;;6.97;;
1533;SDS011;760;48.822;9.304;2023-03-05T16:27:57;9.10;;;6.57;;
1533;SDS011;760;48.822;9.304;2023-03-05T16:30:22;7.40;;;5.73;;
1533;SDS011;760;48.822;9.304;2023-03-05T16:32:48;8.20;;;5.90;;
1533;SDS011;760;48.822;9.304;2023-03-05T16:35:13;11.37;;;6.97;;
1533;SDS011;760;48.822;9.304;2023-03-05T16:37:42;11.33;;;6.47;;
1533;SDS011;760;48.822;9.304;2023-03-05T16:40:08;7.65;;;6.18;;
1533;SDS011;760;48.822;9.304;2023-03-05T16:42:35;14.30;;;6.47;;
1533;SDS011;760;48.822;9.304;2023-03-05T16:45:01;9.60;;;6.23;;
1533;SDS011;760;48.822;9.304;2023-03-05T16:47:27;10.65;;;5.50;;
1533;SDS011;760;48.822;9.304;2023-03-05T16:49:53;11.13;;;5.90;;
1533;SDS011;760;48.822;9.304;2023-03-05T16:52:18;6.77;;;5.10;;
1533;SDS011;760;48.822;9.304;2023-03-05T16:54:44;5.87;;;4.20;;
1533;SDS011;760;48.822;9.304;2023-03-05T16:57:10;11.77;;;6.50;;
1533;SDS011;760;48.822;9.304;2023-03-05T16:59:35;6.87;;;4.00;;
1533;SDS011;760;48.822;9.304;2023-03-05T17:02:02;7.10;;;5.20;;
1533;SDS011;760;48.822;9.304;2023-03-05T17:04:28;8.95;;;5.03;;
1533;SDS011;760;48.822;9.304;2023-03-05T17:06:54;9.27;;;6.70;;
1533;SDS011;760;48.822;9.304;2023-03-05T17:09:21;9.43;;;6.93;;
1533;SDS011;760;48.822;9.304;2023-03-05T17:11:49;8.38;;;6.45;;
1533;SDS011;760;48.822;9.304;2023-03-05T17:14:16;9.18;;;5.65;;
1533;SDS011;760;48.822;9.304;2023-03-05T17:16:41;10.70;;;7.57;;
1533;SDS011;760;48.822;9.304;2023-03-05T17:19:07;10.00;;;6.67;;
1533;SDS011;760;48.822;9.304;2023-03-05T17:21:33;9.07;;;6.60;;
1533;SDS011;760;48.822;9.304;2023-03-05T17:23:58;13.70;;;8.10;;
1533;SDS011;760;48.822;9.304;2023-03-05T17:26:24;10.00;;;6.53;;
1533;SDS011;760;48.822;9.304;2023-03-05T17:28:49;16.17;;;9.50;;
1533;SDS011;760;48.822;9.304;2023-03-05T17:31:15;9.07;;;6.00;;
1533;SDS011;760;48.822;9.304;2023-03-05T17:33:41;12.00;;;8.27;;
1533;SDS011;760;48.822;9.304;2023-03-05T17:36:13;10.50;;;6.70;;
1533;SDS011;760;48.822;9.304;2023-03-05T17:38:40;12.05;;;8.05;;
1533;SDS011;760;48.822;9.304;2023-03-05T17:41:06;9.47;;;7.17;;
1533;SDS011;760;48.822;9.304;2023-03-05T17:43:32;16.70;;;7.93;;
1533;SDS011;760;48.822;9.304;2023-03-05T17:45:59;14.13;;;7.45;;
1533;SDS011;760;48.822;9.304;2023-03-05T17:48:25;10.63;;;7.05;;
1533;SDS011;760;48.822;9.304;2023-03-05T17:50:51;6.83;;;5.20;;
1533;SDS011;760;48.822;9.304;2023-03-05T17:53:17;10.38;;;6.50;;
1533;SDS011;760;48.822;9.304;2023-03-05T17:55:43;11.07;;;6.90;;
1533;SDS011;760;48.822;9.304;2023-03-05T17:58:09;11.20;;;6.60;;
1533;SDS011;760;48.822;9.304;2023-03-05T18:00:35;6.97;;;5.70;;
1533;SDS011;760;48.822;9.304;2023-03-05T18:03:01;12.15;;;7.10;;
1533;SDS011;760;48.822;9.304;2023-03-05T18:05:31;7.82;;;6.60;;
1533;SDS011;760;48.822;9.304;2023-03-05T18:07:56;11.20;;;6.72;;
1533;SDS011;760;48.822;9.304;2023-03-05T18:10:26;8.60;;;6.45;;
1533;SDS011;760;48.822;9.304;2023-03-05T18:12:52;11.55;;;7.07;;
1533;SDS011;760;48.822;9.304;2023-03-05T18:15:18;15.07;;;7.00;;
1533;SDS011;760;48.822;9.304;2023-03-05T18:17:45;10.48;;;6.65;;
1533;SDS011;760;48.822;9.304;2023-03-05T18:20:19;10.60;;;6.80;;
1533;SDS011;760;48.822;9.304;2023-03-05T18:22:58;9.65;;;5.35;;
1533;SDS011;760;48.822;9.304;2023-03-05T18:25:25;8.98;;;6.63;;
1533;SDS011;760;48.822;9.304;2023-03-05T18:27:58;8.48;;;6.38;;
1533;SDS011;760;48.822;9.304;2023-03-05T18:30:25;8.63;;;6.38;;
1533;SDS011;760;48.822;9.304;2023-03-05T18:32:51;11.50;;;8.88;;
1533;SDS011;760;48.822;9.304;2023-03-05T18:35:17;11.32;;;6.65;;
1533;SDS011;760;48.822;9.304;2023-03-05T18:37:43;9.43;;;6.67;;
1533;SDS011;760;48.822;9.304;2023-03-05T18:40:12;9.80;;;5.87;;
1533;SDS011;760;48.822;9.304;2023-03-05T18:42:48;10.73;;;7.05;;
1533;SDS011;760;48.822;9.304;2023-03-05T18:45:15;9.15;;;7.07;;
1533;SDS011;760;48.822;9.304;2023-03-05T18:47:42;12.23;;;7.20;;
1533;SDS011;760;48.822;9.304;2023-03-05T18:50:09;12.13;;;6.47;;
1533;SDS011;760;48.822;9.304;2023-03-05T18:52:36;12.32;;;7.75;;
1533;SDS011;760;48.822;9.304;2023-03-05T18:55:01;10.53;;;7.20;;
1533;SDS011;760;48.822;9.304;2023-03-05T18:57:27;9.40;;;6.47;;
1533;SDS011;760;48.822;9.304;2023-03-05T18:59:53;9.17;;;6.63;;
1533;SDS011;760;48.822;9.304;2023-03-05T19:02:18;12.10;;;8.03;;
1533;SDS011;760;48.822;9.304;2023-03-05T19:04:44;9.57;;;6.63;;
1533;SDS011;760;48.822;9.304;2023-03-05T19:07:10;8.60;;;6.17;;
1533;SDS011;760;48.822;9.304;2023-03-05T19:09:37;8.10;;;5.53;;
1533;SDS011;760;48.822;9.304;2023-03-05T19:12:24;9.93;;;6.88;;
1533;SDS011;760;48.822;9.304;2023-03-05T19:14:57;8.60;;;5.88;;
1533;SDS011;760;48.822;9.304;2023-03-05T19:17:23;8.50;;;5.72;;
1533;SDS011;760;48.822;9.304;2023-03-05T19:19:50;15.70;;;7.60;;
1533;SDS011;760;48.822;9.304;2023-03-05T19:22:17;7.15;;;5.20;;
1533;SDS011;760;48.822;9.304;2023-03-05T19:24:43;6.25;;;4.68;;
1533;SDS011;760;48.822;9.304;2023-03-05T19:27:09;7.97;;;5.83;;
1533;SDS011;760;48.822;9.304;2023-03-05T19:29:37;11.45;;;6.55;;
1533;SDS011;760;48.822;9.304;2023-03-05T19:32:08;9.85;;;6.05;;
1533;SDS011;760;48.822;9.304;2023-03-05T19:34:35;11.63;;;7.22;;
1533;SDS011;760;48.822;9.304;2023-03-05T19:37:02;14.03;;;7.00;;
1533;SDS011;760;48.822;9.304;2023-03-05T19:39:27;10.98;;;7.22;;
1533;SDS011;760;48.822;9.304;2023-03-05T19:41:53;8.70;;;5.43;;
1533;SDS011;760;48.822;9.304;2023-03-05T19:44:19;15.70;;;7.67;;
1533;SDS011;760;48.822;9.304;2023-03-05T19:46:45;9.93;;;6.50;;
1533;SDS011;760;48.822;9.304;2023-03-05T19:49:13;6.72;;;5.57;;
1533;SDS011;760;48.822;9.304;2023-03-05T19:51:40;12.35;;;7.22;;
1533;SDS011;760;48.822;9.304;2023-03-05T19:54:07;7.10;;;5.65;;
1533;SDS011;760;48.822;9.304;2023-03-05T19:56:35;9.93;;;7.70;;
1533;SDS011;760;48.822;9.304;2023-03-05T19:59:02;9.13;;;6.75;;
1533;SDS011;760;48.822;9.304;2023-03-05T20:01:28;6.43;;;5.78;;
1533;SDS011;760;48.822;9.304;2023-03-05T20:03:54;10.57;;;6.43;;
1533;SDS011;760;48.822;9.304;2023-03-05T20:06:22;15.18;;;9.35;;
1533;SDS011;760;48.822;9.304;2023-03-05T20:08:49;12.27;;;8.45;;
1533;SDS011;760;48.822;9.304;2023-03-05T20:11:15;10.60;;;7.83;;
1533;SDS011;760;48.822;9.304;2023-03-05T20:13:43;13.98;;;7.20;;
1533;SDS011;760;48.822;9.304;2023-03-05T20:18:46;13.32;;;7.93;;
1533;SDS011;760;48.822;9.304;2023-03-05T20:21:16;10.18;;;7.28;;
1533;SDS011;760;48.822;9.304;2023-03-05T20:23:47;11.82;;;7.55;;
1533;SDS011;760;48.822;9.304;2023-03-05T20:26:23;13.48;;;7.72;;
1533;SDS011;760;48.822;9.304;2023-03-05T20:28:50;11.27;;;5.45;;
1533;SDS011;760;48.822;9.304;2023-03-05T20:31:17;8.32;;;6.97;;
1533;SDS011;760;48.822;9.304;2023-03-05T20:33:44;10.38;;;7.43;;
1533;SDS011;760;48.822;9.304;2023-03-05T20:36:10;10.50;;;5.97;;
1533;SDS011;760;48.822;9.304;2023-03-05T20:38:35;10.43;;;8.03;;
1533;SDS011;760;48.822;9.304;2023-03-05T20:43:36;12.60;;;7.07;;
1533;SDS011;760;48.822;9.304;2023-03-05T20:46:16;14.25;;;7.82;;
1533;SDS011;760;48.822;9.304;2023-03-05T20:48:44;8.52;;;6.38;;
1533;SDS011;760;48.822;9.304;2023-03-05T20:51:13;10.65;;;7.07;;
1533;SDS011;760;48.822;9.304;2023-03-05T20:54:08;12.68;;;8.15;;
1533;SDS011;760;48.822;9.304;2023-03-05T20:56:35;12.93;;;7.75;;
1533;SDS011;760;48.822;9.304;2023-03-05T20:59:02;11.10;;;7.47;;
1533;SDS011;760;48.822;9.304;2023-03-05T21:01:29;11.75;;;7.82;;
1533;SDS011;760;48.822;9.304;2023-03-05T21:03:56;12.00;;;7.90;;
1533;SDS011;760;48.822;9.304;2023-03-05T21:06:23;9.20;;;5.67;;
1533;SDS011;760;48.822;9.304;2023-03-05T21:08:50;8.52;;;5.65;;
1533;SDS011;760;48.822;9.304;2023-03-05T21:11:17;11.30;;;7.73;;
1533;SDS011;760;48.822;9.304;2023-03-05T21:13:43;12.43;;;6.40;;
1533;SDS011;760;48.822;9.304;2023-03-05T21:16:10;10.13;;;7.20;;
1533;SDS011;760;48.822;9.304;2023-03-05T21:18:40;6.78;;;5.25;;
1533;SDS011;760;48.822;9.304;2023-03-05T21:21:06;10.23;;;5.70;;
1533;SDS011;760;48.822;9.304;2023-03-05T21:23:32;7.20;;;6.23;;
1533;SDS011;760;48.822;9.304;2023-03-05T21:25:58;12.50;;;5.60;;
1533;SDS011;760;48.822;9.304;2023-03-05T21:28:24;6.80;;;6.00;;
1533;SDS011;760;48.822;9.304;2023-03-05T21:30:51;15.17;;;7.60;;
1533;SDS011;760;48.822;9.304;2023-03-05T21:33:19;9.52;;;6.32;;
1533;SDS011;760;48.822;9.304;2023-03-05T21:35:49;8.85;;;5.65;;
1533;SDS011;760;48.822;9.304;2023-03-05T21:38:19;8.63;;;6.05;;
1533;SDS011;760;48.822;9.304;2023-03-05T21:40:47;7.95;;;5.13;;
1533;SDS011;760;48.822;9.304;2023-03-05T21:43:17;9.88;;;5.97;;
1533;SDS011;760;48.822;9.304;2023-03-05T21:45:45;8.65;;;5.40;;
1533;SDS011;760;48.822;9.304;2023-03-05T21:48:12;10.18;;;6.78;;
1533;SDS011;760;48.822;9.304;2023-03-05T21:50:39;8.70;;;6.53;;
1533;SDS011;760;48.822;9.304;2023-03-05T21:53:07;11.52;;;8.32;;
1533;SDS011;760;48.822;9.304;2023-03-05T21:55:33;10.45;;;7.05;;
1533;SDS011;760;48.822;9.304;2023-03-05T21:58:10;12.05;;;7.97;;
1533;SDS011;760;48.822;9.304;2023-03-05T22:00:37;10.85;;;7.97;;
1533;SDS011;760;48.822;9.304;2023-03-05T22:03:02;12.57;;;8.70;;
1533;SDS011;760;48.822;9.304;2023-03-05T22:05:28;10.03;;;7.20;;
1533;SDS011;760;48.822;9.304;2023-03-05T22:07:54;13.83;;;7.77;;
1533;SDS011;760;48.822;9.304;2023-03-05T22:10:20;9.77;;;7.20;;